createdAt,value
2018-09-16T00:00:03.096Z,15.5
2018-09-16T00:05:32.423Z,15.4
2018-09-16T00:11:01.904Z,15.4
2018-09-16T00:16:31.283Z,15.3
2018-09-16T00:22:01.985Z,15.3
2018-09-16T00:27:32.136Z,15.2
2018-09-16T00:33:02.591Z,15.2
2018-09-16T00:38:32.151Z,15.1
2018-09-16T00:44:08.691Z,15.1
2018-09-16T00:49:37.847Z,15
2018-09-16T00:55:02.461Z,15
2018-09-16T01:00:32.595Z,15
2018-09-16T01:06:02.061Z,14.9
2018-09-16T01:11:31.371Z,14.9
2018-09-16T01:17:05.761Z,14.8
2018-09-16T01:22:35.226Z,14.8
2018-09-16T01:28:00.724Z,14.7
2018-09-16T01:33:29.870Z,14.7
2018-09-16T01:39:00.270Z,14.6
2018-09-16T01:44:29.592Z,14.6
2018-09-16T01:49:58.963Z,14.6
2018-09-16T01:55:28.295Z,14.5
2018-09-16T02:00:57.630Z,14.5
2018-09-16T02:06:26.979Z,14.4
2018-09-16T02:12:01.637Z,14.4
2018-09-16T02:17:27.099Z,14.4
2018-09-16T02:22:57.023Z,14.3
2018-09-16T02:28:31.636Z,14.3
2018-09-16T02:33:57.034Z,14.2
2018-09-16T02:39:27.005Z,14.2
2018-09-16T02:44:56.323Z,14.2
2018-09-16T02:50:30.624Z,14.1
2018-09-16T02:55:54.895Z,14.1
2018-09-16T03:01:29.210Z,14
2018-09-16T03:07:00.100Z,14
2018-09-16T03:12:23.778Z,14
2018-09-16T03:17:54.301Z,13.9
2018-09-16T03:23:28.380Z,13.9
2018-09-16T03:28:52.653Z,13.9
2018-09-16T03:34:22.913Z,13.8
2018-09-16T03:39:53.185Z,13.8
2018-09-16T03:45:28.852Z,13.8
2018-09-16T03:50:59.107Z,13.7
2018-09-16T03:56:24.008Z,13.7
2018-09-16T04:01:53.264Z,13.7
2018-09-16T04:07:28.539Z,13.6
2018-09-16T04:12:53.844Z,13.6
2018-09-16T04:18:24.484Z,13.6
2018-09-16T04:23:54.681Z,13.5
2018-09-16T04:29:29.511Z,13.5
2018-09-16T04:34:53.784Z,13.5
2018-09-16T04:40:29.250Z,13.4
2018-09-16T04:45:53.463Z,13.4
2018-09-16T04:51:27.441Z,13.4
2018-09-16T04:56:51.656Z,13.4
2018-09-16T05:02:22.209Z,13.3
2018-09-16T05:07:51.220Z,13.3
2018-09-16T05:13:20.609Z,13.3
2018-09-16T05:18:49.979Z,13.2
2018-09-16T05:24:25.077Z,13.2
2018-09-16T05:29:48.957Z,13.2
2018-09-16T05:35:23.200Z,13.2
2018-09-16T05:40:47.415Z,13.2
2018-09-16T05:46:17.612Z,13.1
2018-09-16T05:51:48.180Z,13.1
2018-09-16T05:57:17.028Z,13.1
2018-09-16T06:02:52.549Z,13.1
2018-09-16T06:08:22.472Z,13.1
2018-09-16T06:13:47.902Z,13.1
2018-09-16T06:19:17.855Z,13.1
2018-09-16T06:24:47.089Z,13
2018-09-16T06:30:17.545Z,13
2018-09-16T06:35:46.734Z,13
2018-09-16T06:41:21.718Z,13
2018-09-16T06:46:51.868Z,13
2018-09-16T06:52:17.026Z,13
2018-09-16T06:57:46.246Z,13
2018-09-16T07:03:15.429Z,13
2018-09-16T07:08:45.896Z,13
2018-09-16T07:14:15.010Z,13
2018-09-16T07:19:45.024Z,13
2018-09-16T07:25:19.221Z,13
2018-09-16T07:30:43.655Z,13
2018-09-16T07:36:13.590Z,13
2018-09-16T07:41:44.134Z,13
2018-09-16T07:47:19.247Z,13
2018-09-16T07:52:44.242Z,13
2018-09-16T07:58:13.344Z,13
2018-09-16T08:03:43.814Z,13
2018-09-16T08:09:12.694Z,13
2018-09-16T08:14:43.266Z,13
2018-09-16T08:20:12.506Z,13
2018-09-16T08:25:41.355Z,13.1
2018-09-16T08:31:11.480Z,13.1
2018-09-16T08:36:41.972Z,13.1
2018-09-16T08:42:15.919Z,13.1
2018-09-16T08:47:40.178Z,13.2
2018-09-16T08:53:10.349Z,13.3
2018-09-16T08:58:39.560Z,13.3
2018-09-16T09:04:09.841Z,13.4
2018-09-16T09:09:40.009Z,13.5
2018-09-16T09:15:10.293Z,13.5
2018-09-16T09:20:39.524Z,13.6
2018-09-16T09:26:08.797Z,13.7
2018-09-16T09:31:38.091Z,13.7
2018-09-16T09:42:42.686Z,13.9
2018-09-16T09:48:07.937Z,14
2018-09-16T09:53:37.362Z,14
2018-09-16T09:59:12.641Z,14.1
2018-09-16T10:04:36.828Z,14.4
2018-09-16T10:10:07.258Z,14.9
2018-09-16T10:15:36.704Z,15.8
2018-09-16T10:21:07.634Z,16.8
2018-09-16T10:26:42.144Z,17.9
2018-09-16T10:32:07.999Z,18.7
2018-09-16T10:37:37.741Z,19
2018-09-16T10:43:07.505Z,19
2018-09-16T10:48:43.768Z,18.9
2018-09-16T10:54:08.103Z,18.9
2018-09-16T10:59:38.907Z,18.8
2018-09-16T11:05:08.938Z,18.8
2018-09-16T11:10:43.532Z,18.8
2018-09-16T11:16:08.553Z,18.8
2018-09-16T11:21:44.108Z,18.8
2018-09-16T11:27:08.877Z,18.8
2018-09-16T11:32:39.689Z,18.8
2018-09-16T11:38:10.786Z,18.8
2018-09-16T11:43:40.300Z,18.9
2018-09-16T11:49:11.407Z,18.9
2018-09-16T11:54:45.988Z,18.9
2018-09-16T12:00:10.720Z,18.9
2018-09-16T12:05:40.537Z,18.9
2018-09-16T12:11:16.359Z,18.9
2018-09-16T12:16:42.163Z,18.9
2018-09-16T12:22:18.019Z,19
2018-09-16T12:27:44.088Z,19
2018-09-16T12:33:18.651Z,19
2018-09-16T12:38:44.446Z,19
2018-09-16T12:44:19.271Z,19
2018-09-16T12:49:45.064Z,19
2018-09-16T12:55:15.966Z,19
2018-09-16T13:00:51.794Z,19
2018-09-16T13:06:16.551Z,19.1
2018-09-16T13:11:46.393Z,19.1
2018-09-16T13:17:22.233Z,19.1
2018-09-16T13:22:48.039Z,19.1
2018-09-16T13:28:23.876Z,19.1
2018-09-16T13:33:54.002Z,19.1
2018-09-16T13:39:19.555Z,19.1
2018-09-16T13:44:50.403Z,19.1
2018-09-16T13:50:26.560Z,19.1
2018-09-16T13:55:51.139Z,19.2
2018-09-16T14:01:20.889Z,19.2
2018-09-16T14:06:56.760Z,19.2
2018-09-16T14:12:21.587Z,19.2
2018-09-16T14:17:57.755Z,19.2
2018-09-16T14:23:27.691Z,19.2
2018-09-16T14:28:52.056Z,19.2
2018-09-16T14:34:23.150Z,19.2
2018-09-16T14:39:58.319Z,19.2
2018-09-16T14:45:22.722Z,19.2
2018-09-16T14:50:53.405Z,19.2
2018-09-16T14:56:24.603Z,19.2
2018-09-16T15:01:54.281Z,19.2
2018-09-16T15:12:55.264Z,19.2
2018-09-16T15:18:30.691Z,19.2
2018-09-16T15:23:56.501Z,19.2
2018-09-16T15:29:27.279Z,19.2
2018-09-16T15:35:03.161Z,19.2
2018-09-16T15:40:29.127Z,19.2
2018-09-16T15:46:04.787Z,19.2
2018-09-16T15:51:30.656Z,19.2
2018-09-16T15:57:00.482Z,19.2
2018-09-16T16:02:31.350Z,19.2
2018-09-16T16:08:01.185Z,19.2
2018-09-16T16:13:32.022Z,19.2
2018-09-16T16:19:06.858Z,19.2
2018-09-16T16:24:32.703Z,19.2
2018-09-16T16:30:08.976Z,19.2
2018-09-16T16:35:33.432Z,19.2
2018-09-16T16:41:04.221Z,19.2
2018-09-16T16:46:35.116Z,19.2
2018-09-16T16:52:05.181Z,19.2
2018-09-16T16:57:39.753Z,19.2
2018-09-16T17:03:05.662Z,19.2
2018-09-16T17:08:36.405Z,19.2
2018-09-16T17:19:37.107Z,19.2
2018-09-16T17:25:07.020Z,19.2
2018-09-16T17:30:36.734Z,19.2
2018-09-16T17:36:06.794Z,19.2
2018-09-16T17:41:37.730Z,19.2
2018-09-16T17:47:07.325Z,19.2
2018-09-16T17:52:38.085Z,19.2
2018-09-16T17:58:08.965Z,19.2
2018-09-16T18:03:38.028Z,19.2
2018-09-16T18:09:13.053Z,19.2
2018-09-16T18:14:38.444Z,19.2
2018-09-16T18:20:13.768Z,19.2
2018-09-16T18:25:38.075Z,19.2
2018-09-16T18:31:13.943Z,19.2
2018-09-16T18:36:38.752Z,19.2
2018-09-16T18:42:10.175Z,19.2
2018-09-16T18:47:39.383Z,19.2
2018-09-16T18:53:09.267Z,19.2
2018-09-16T18:58:39.060Z,19.2
2018-09-16T19:04:10.139Z,19.2
2018-09-16T19:09:45.736Z,19.2
2018-09-16T19:15:10.497Z,19.2
2018-09-16T19:20:40.618Z,19.2
2018-09-16T19:26:11.451Z,19.2
2018-09-16T19:31:40.967Z,19.2
2018-09-16T19:37:12.056Z,19.1
2018-09-16T19:42:42.884Z,19.1
2018-09-16T19:48:12.441Z,19.2
2018-09-16T19:53:47.866Z,19.1
2018-09-16T19:59:13.102Z,19.1
2018-09-16T20:04:42.902Z,19.1
2018-09-16T20:10:18.954Z,19.1
2018-09-16T20:15:43.938Z,19.1
2018-09-16T20:21:14.433Z,19.1
2018-09-16T20:26:49.233Z,19.1
2018-09-16T20:32:15.280Z,19.1
2018-09-16T20:37:45.837Z,19.1
2018-09-16T20:43:17.123Z,19.1
2018-09-16T20:48:46.490Z,19.1
2018-09-16T20:54:16.376Z,19.1
2018-09-16T20:59:46.163Z,19.1
2018-09-16T21:05:22.024Z,19.1
2018-09-16T21:10:46.755Z,19.1
2018-09-16T21:16:21.612Z,19.1
2018-09-16T21:21:47.366Z,19.1
2018-09-16T21:27:17.624Z,19.1
2018-09-16T21:32:47.276Z,19.1
2018-09-16T21:38:17.805Z,19.1
2018-09-16T21:43:48.052Z,19.1
2018-09-16T21:49:23.454Z,19.1
2018-09-16T21:54:48.286Z,19.1
2018-09-16T22:00:18.132Z,19.1
2018-09-16T22:05:53.191Z,19.1
2018-09-16T22:11:17.707Z,19.1
2018-09-16T22:16:48.504Z,19.1
2018-09-16T22:22:19.590Z,19
2018-09-16T22:27:50.204Z,19
2018-09-16T22:33:21.114Z,19
2018-09-16T22:38:56.783Z,19
2018-09-16T22:44:21.620Z,19
2018-09-16T22:49:51.561Z,19
2018-09-16T22:55:21.664Z,19
2018-09-16T23:00:56.328Z,19
2018-09-16T23:06:20.746Z,19
2018-09-16T23:11:50.812Z,19
2018-09-16T23:17:20.361Z,19
2018-09-16T23:22:56.273Z,19
2018-09-16T23:28:22.127Z,19
2018-09-16T23:33:52.071Z,19
2018-09-16T23:39:22.879Z,19
2018-09-16T23:44:53.423Z,19
2018-09-16T23:50:28.490Z,19
2018-09-16T23:55:53.026Z,19
